| time (UTC) | temp F | wind direction | speed MPH | gust MPH | rain 1hr in | rain 24hr in | rain mn in | humidity % | barometer mb |
| 20260901043516 | 74 | 0.0 | 0.0 | 0.00 | 0.27 | 0.27 | 73 | 1026.8 | |
| 20260901042535 | 74 | 45 | 3.0 | 4.0 | 0.00 | 0.27 | 0.27 | 73 | 1026.7 |
| 20260901041516 | 74 | 45 | 4.0 | 7.0 | 0.00 | 0.27 | 0.27 | 73 | 1026.8 |
| 20260901040516 | 75 | 45 | 4.0 | 6.0 | 0.00 | 0.27 | 0.27 | 74 | 1026.6 |
| 20260901035516 | 75 | 0 | 3.0 | 4.0 | 0.00 | 0.27 | 0.27 | 73 | 1026.3 |
| 20260901034515 | 75 | 45 | 1.0 | 4.0 | 0.00 | 0.27 | 0.27 | 72 | 1026.3 |
| 20260901033536 | 75 | 45 | 3.0 | 5.0 | 0.00 | 0.27 | 0.27 | 71 | 1026.2 |
| 20260901032515 | 75 | 338 | 1.0 | 4.0 | 0.00 | 0.27 | 0.27 | 72 | 1026.1 |
| 20260901031556 | 75 | 0.0 | 0.0 | 0.00 | 0.27 | 0.27 | 73 | 1025.9 | |
| 20260901030516 | 75 | 0.0 | 2.0 | 0.00 | 0.27 | 0.27 | 73 | 1025.6 | |
| 20260901025515 | 76 | 68 | 1.0 | 3.0 | 0.00 | 0.27 | 0.27 | 70 | 1025.5 |
| 20260901024556 | 76 | 0.0 | 2.0 | 0.00 | 0.27 | 0.27 | 69 | 1025.4 | |
| 20260901023515 | 76 | 68 | 5.0 | 10.0 | 0.00 | 0.27 | 0.27 | 70 | 1024.9 |
| 20260901022556 | 75 | 45 | 4.0 | 7.0 | 0.00 | 0.27 | 0.27 | 72 | 1024.9 |
| 20260901021515 | 76 | 68 | 1.0 | 3.0 | 0.00 | 0.27 | 0.27 | 72 | 1024.7 |
| 20260901020516 | 76 | 0.0 | 0.0 | 0.00 | 0.27 | 0.27 | 73 | 1024.3 | |
| 20260901015516 | 76 | 0.0 | 0.0 | 0.00 | 0.27 | 0.27 | 71 | 1024.1 | |
| 20260901014516 | 77 | 45 | 2.0 | 3.0 | 0.00 | 0.27 | 0.27 | 70 | 1023.9 |
| 20260901013536 | 77 | 0 | 1.0 | 2.0 | 0.00 | 0.27 | 0.27 | 70 | 1023.8 |
| 20260901012516 | 78 | 0.0 | 0.0 | 0.00 | 0.27 | 0.27 | 68 | 1023.7 | |
| 20260901011516 | 78 | 0.0 | 0.0 | 0.00 | 0.27 | 0.27 | 65 | 1023.6 | |
| 20260901010536 | 78 | 248 | 1.0 | 3.0 | 0.00 | 0.27 | 0.27 | 64 | 1023.6 |
| 20260901005536 | 79 | 293 | 1.0 | 2.0 | 0.00 | 0.27 | 0.27 | 63 | 1023.4 |
| 20260901004555 | 79 | 248 | 3.0 | 4.0 | 0.00 | 0.27 | 0.27 | 61 | 1023.5 |
| 20260901003515 | 80 | 248 | 2.0 | 3.0 | 0.00 | 0.27 | 0.27 | 59 | 1024.0 |
| 20260901002515 | 81 | 225 | 2.0 | 4.0 | 0.00 | 0.27 | 0.27 | 58 | 1023.8 |
| 20260901001515 | 81 | 225 | 3.0 | 6.0 | 0.00 | 0.27 | 0.27 | 57 | 1024.0 |
| 20260901000535 | 81 | 203 | 6.0 | 10.0 | 0.00 | 0.27 | 0.27 | 56 | 1024.5 |
| 20260831235515 | 81 | 203 | 3.0 | 5.0 | 0.00 | 0.27 | 0.27 | 60 | 1024.4 |
| 20260831234518 | 80 | 90 | 3.0 | 7.0 | 0.00 | 0.27 | 0.27 | 59 | 1024.2 |
| 20260831233517 | 79 | 68 | 6.0 | 10.0 | 0.00 | 0.27 | 0.27 | 62 | 1024.1 |
| 20260831232517 | 78 | 68 | 10.0 | 15.0 | 0.00 | 0.27 | 0.27 | 63 | 1024.1 |
| 20260831231538 | 77 | 68 | 12.0 | 19.0 | 0.00 | 0.27 | 0.27 | 65 | 1024.1 |
| 20260831230517 | 76 | 68 | 11.0 | 17.0 | 0.00 | 0.27 | 0.27 | 67 | 1024.1 |
| 20260831225518 | 75 | 68 | 13.0 | 20.0 | 0.00 | 0.27 | 0.27 | 67 | 1024.2 |
| 20260831224517 | 75 | 45 | 12.0 | 21.0 | 0.00 | 0.27 | 0.27 | 69 | 1024.2 |
| 20260831223517 | 74 | 68 | 13.0 | 21.0 | 0.00 | 0.27 | 0.27 | 71 | 1024.2 |
| 20260831222518 | 73 | 68 | 9.0 | 14.0 | 0.00 | 0.27 | 0.27 | 74 | 1024.3 |
| 20260831221517 | 73 | 68 | 13.0 | 25.0 | 0.00 | 0.27 | 0.27 | 75 | 1024.6 |
| 20260831220517 | 72 | 45 | 13.0 | 17.0 | 0.00 | 0.27 | 0.27 | 79 | 1024.8 |
| 20260831215517 | 71 | 45 | 13.0 | 22.0 | 0.02 | 0.27 | 0.27 | 82 | 1024.9 |
| 20260831214518 | 70 | 45 | 12.0 | 22.0 | 0.02 | 0.27 | 0.27 | 82 | 1024.9 |
| 20260831213517 | 70 | 68 | 15.0 | 23.0 | 0.04 | 0.27 | 0.27 | 83 | 1025.1 |
| 20260831212517 | 69 | 45 | 18.0 | 32.0 | 0.05 | 0.27 | 0.27 | 82 | 1025.0 |
| 20260831211517 | 69 | 68 | 18.0 | 29.0 | 0.06 | 0.27 | 0.27 | 84 | 1025.0 |
| 20260831210517 | 69 | 45 | 19.0 | 29.0 | 0.08 | 0.27 | 0.27 | 85 | 1025.9 |
| 20260831205518 | 69 | 45 | 11.0 | 18.0 | 0.13 | 0.25 | 0.25 | 87 | 1026.9 |
| 20260831204517 | 69 | 45 | 5.0 | 7.0 | 0.16 | 0.25 | 0.25 | 86 | 1027.4 |
| 20260831203517 | 69 | 90 | 8.0 | 14.0 | 0.14 | 0.23 | 0.23 | 84 | 1027.6 |
| 20260831202517 | 70 | 90 | 6.0 | 11.0 | 0.13 | 0.22 | 0.22 | 87 | 1027.9 |
| 20260831201537 | 70 | 68 | 4.0 | 6.0 | 0.12 | 0.21 | 0.21 | 87 | 1028.4 |
| 20260831200517 | 70 | 0.0 | 0.0 | 0.11 | 0.19 | 0.19 | 85 | 1028.8 | |
| 20260831195537 | 71 | 0.0 | 3.0 | 0.04 | 0.12 | 0.12 | 84 | 1029.0 | |
| 20260831194517 | 71 | 113 | 5.0 | 10.0 | 0.01 | 0.09 | 0.09 | 83 | 1028.9 |
| 20260831193517 | 71 | 135 | 8.0 | 10.0 | 0.01 | 0.09 | 0.09 | 82 | 1029.4 |
| 20260831192517 | 72 | 135 | 9.0 | 15.0 | 0.01 | 0.09 | 0.09 | 83 | 1029.1 |
| 20260831191517 | 72 | 180 | 2.0 | 5.0 | 0.01 | 0.09 | 0.09 | 82 | 1029.2 |
| 20260831190517 | 72 | 90 | 2.0 | 5.0 | 0.00 | 0.08 | 0.08 | 80 | 1029.1 |
| 20260831185517 | 72 | 68 | 6.0 | 10.0 | 0.00 | 0.08 | 0.08 | 78 | 1028.8 |
| 20260831184517 | 73 | 90 | 4.0 | 6.0 | 0.00 | 0.08 | 0.08 | 76 | 1029.1 |
| 20260831183517 | 73 | 225 | 4.0 | 13.0 | 0.00 | 0.08 | 0.08 | 73 | 1028.7 |
| 20260831182517 | 75 | 203 | 9.0 | 15.0 | 0.00 | 0.08 | 0.08 | 69 | 1029.0 |
| 20260831181517 | 77 | 203 | 8.0 | 14.0 | 0.00 | 0.08 | 0.08 | 66 | 1028.3 |
| 20260831180517 | 77 | 203 | 5.0 | 10.0 | 0.00 | 0.08 | 0.08 | 63 | 1028.0 |
| 20260831175517 | 77 | 225 | 2.0 | 5.0 | 0.00 | 0.08 | 0.08 | 63 | 1028.3 |
| 20260831174537 | 77 | 203 | 3.0 | 7.0 | 0.00 | 0.08 | 0.08 | 64 | 1028.2 |
| 20260831173517 | 77 | 225 | 6.0 | 10.0 | 0.00 | 0.08 | 0.08 | 64 | 1028.0 |
| 20260831172517 | 77 | 248 | 7.0 | 13.0 | 0.00 | 0.08 | 0.08 | 64 | 1028.1 |
| 20260831171517 | 78 | 270 | 10.0 | 18.0 | 0.00 | 0.08 | 0.08 | 62 | 1027.9 |
| 20260831170517 | 78 | 293 | 7.0 | 12.0 | 0.00 | 0.08 | 0.08 | 67 | 1027.9 |
| 20260831165517 | 78 | 293 | 9.0 | 17.0 | 0.00 | 0.08 | 0.08 | 66 | 1027.6 |
| 20260831164517 | 79 | 293 | 8.0 | 14.0 | 0.00 | 0.08 | 0.08 | 65 | 1027.2 |
| 20260831163517 | 79 | 293 | 9.0 | 16.0 | 0.00 | 0.08 | 0.08 | 64 | 1027.2 |
| 20260831162517 | 81 | 270 | 10.0 | 19.0 | 0.00 | 0.08 | 0.08 | 61 | 1026.8 |
| 20260831161537 | 81 | 338 | 5.0 | 15.0 | 0.00 | 0.08 | 0.08 | 53 | 1026.4 |
| 20260831160517 | 80 | 23 | 7.0 | 12.0 | 0.00 | 0.08 | 0.08 | 54 | 1026.5 |
| 20260831155517 | 79 | 45 | 10.0 | 19.0 | 0.00 | 0.08 | 0.08 | 57 | 1026.1 |
| 20260831154517 | 78 | 45 | 10.0 | 18.0 | 0.00 | 0.08 | 0.08 | 58 | 1026.2 |
| 20260831153537 | 78 | 45 | 12.0 | 22.0 | 0.00 | 0.08 | 0.08 | 59 | 1026.4 |
| 20260831152517 | 78 | 45 | 12.0 | 21.0 | 0.00 | 0.08 | 0.08 | 58 | 1026.6 |
| 20260831151517 | 78 | 23 | 11.0 | 22.0 | 0.00 | 0.08 | 0.08 | 59 | 1026.3 |
| 20260831150517 | 78 | 68 | 13.0 | 22.0 | 0.01 | 0.08 | 0.08 | 58 | 1026.1 |
| 20260831145537 | 77 | 45 | 6.0 | 14.0 | 0.01 | 0.08 | 0.08 | 62 | 1026.0 |
| 20260831144517 | 77 | 45 | 10.0 | 17.0 | 0.01 | 0.08 | 0.08 | 66 | 1025.9 |
| 20260831143517 | 76 | 68 | 7.0 | 14.0 | 0.01 | 0.08 | 0.08 | 66 | 1025.6 |
| 20260831142517 | 76 | 45 | 8.0 | 18.0 | 0.01 | 0.08 | 0.08 | 68 | 1025.7 |
| 20260831141517 | 75 | 45 | 11.0 | 20.0 | 0.01 | 0.08 | 0.08 | 69 | 1025.5 |
| 20260831140517 | 74 | 68 | 14.0 | 24.0 | 0.00 | 0.07 | 0.07 | 74 | 1025.4 |
| 20260831135517 | 71 | 90 | 7.0 | 16.0 | 0.00 | 0.07 | 0.07 | 84 | 1025.4 |
| 20260831134517 | 70 | 293 | 2.0 | 7.0 | 0.00 | 0.07 | 0.07 | 89 | 1025.5 |
| 20260831133517 | 70 | 45 | 2.0 | 4.0 | 0.00 | 0.07 | 0.07 | 89 | 1025.8 |
| 20260831132517 | 70 | 135 | 5.0 | 10.0 | 0.04 | 0.07 | 0.07 | 88 | 1025.7 |
| 20260831131517 | 69 | 135 | 10.0 | 15.0 | 0.07 | 0.07 | 0.07 | 88 | 1025.6 |
| 20260831130517 | 69 | 135 | 9.0 | 14.0 | 0.07 | 0.07 | 0.07 | 88 | 1026.0 |
| 20260831125517 | 69 | 113 | 8.0 | 12.0 | 0.07 | 0.07 | 0.07 | 88 | 1026.1 |
| 20260831124517 | 70 | 113 | 8.0 | 11.0 | 0.07 | 0.07 | 0.07 | 87 | 1026.6 |
| 20260831123517 | 70 | 135 | 9.0 | 14.0 | 0.07 | 0.07 | 0.07 | 85 | 1027.0 |
| 20260831122517 | 72 | 158 | 8.0 | 10.0 | 0.03 | 0.03 | 0.03 | 80 | 1026.8 |
| 20260831121517 | 74 | 158 | 8.0 | 12.0 | 0.00 | 0.00 | 0.00 | 76 | 1026.8 |
| 20260831120517 | 75 | 180 | 5.0 | 8.0 | 0.00 | 0.00 | 0.00 | 71 | 1026.7 |
| 20260831115517 | 76 | 248 | 8.0 | 13.0 | 0.00 | 0.00 | 0.00 | 67 | 1026.6 |
| 20260831114517 | 78 | 225 | 9.0 | 21.0 | 0.00 | 0.00 | 0.00 | 63 | 1026.7 |
| 20260831113517 | 79 | 270 | 8.0 | 20.0 | 0.00 | 0.00 | 0.00 | 58 | 1026.1 |
| 20260831112517 | 80 | 45 | 9.0 | 16.0 | 0.00 | 0.00 | 0.00 | 55 | 1025.4 |
| 20260831111517 | 79 | 0 | 3.0 | 9.0 | 0.00 | 0.00 | 0.00 | 57 | 1024.9 |
| 20260831110517 | 79 | 0.0 | 0.0 | 0.00 | 0.00 | 0.00 | 57 | 1024.8 | |
| 20260831105517 | 78 | 0.0 | 0.0 | 0.00 | 0.00 | 0.00 | 57 | 1024.7 | |
| 20260831104517 | 79 | 0.0 | 0.0 | 0.00 | 0.00 | 0.00 | 56 | 1024.2 | |
| 20260831103517 | 79 | 0.0 | 1.0 | 0.00 | 0.00 | 0.00 | 56 | 1024.1 | |
| 20260831102537 | 79 | 0.0 | 0.0 | 0.00 | 0.00 | 0.00 | 56 | 1024.2 | |
| 20260831101517 | 78 | 0.0 | 2.0 | 0.00 | 0.00 | 0.00 | 56 | 1024.2 | |
| 20260831100517 | 78 | 23 | 2.0 | 3.0 | 0.00 | 0.00 | 0.00 | 56 | 1024.2 |
| 20260831095517 | 78 | 45 | 2.0 | 2.0 | 0.00 | 0.00 | 0.00 | 55 | 1023.8 |
| 20260831094517 | 79 | 0 | 1.0 | 2.0 | 0.00 | 0.00 | 0.00 | 55 | 1023.8 |
| 20260831093516 | 79 | 0.0 | 0.0 | 0.00 | 0.00 | 0.00 | 55 | 1024.0 | |
| 20260831092516 | 80 | 0.0 | 0.0 | 0.00 | 0.00 | 0.00 | 54 | 1023.9 | |
| 20260831091537 | 80 | 0.0 | 0.0 | 0.00 | 0.00 | 0.00 | 53 | 1024.1 | |
| 20260831090516 | 81 | 0.0 | 0.0 | 0.00 | 0.00 | 0.00 | 51 | 1024.1 | |
| 20260831085517 | 82 | 0.0 | 0.0 | 0.00 | 0.00 | 0.00 | 49 | 1024.1 | |
| 20260831084516 | 83 | 0.0 | 1.0 | 0.00 | 0.00 | 0.00 | 49 | 1024.1 | |
| 20260831083537 | 83 | 135 | 2.0 | 3.0 | 0.00 | 0.00 | 0.00 | 48 | 1024.4 |
| 20260831082516 | 83 | 68 | 4.0 | 8.0 | 0.00 | 0.00 | 0.00 | 47 | 1024.3 |
| 20260831081516 | 83 | 68 | 8.0 | 11.0 | 0.00 | 0.00 | 0.00 | 47 | 1024.4 |
| 20260831080516 | 83 | 68 | 7.0 | 13.0 | 0.00 | 0.00 | 0.00 | 48 | 1024.4 |
| 20260831075537 | 83 | 45 | 8.0 | 15.0 | 0.00 | 0.00 | 0.00 | 48 | 1024.3 |
| 20260831074517 | 83 | 45 | 4.0 | 8.0 | 0.00 | 0.00 | 0.00 | 48 | 1024.4 |
| 20260831073516 | 83 | 68 | 4.0 | 5.0 | 0.00 | 0.00 | 0.00 | 48 | 1024.5 |
| 20260831072517 | 84 | 0 | 1.0 | 3.0 | 0.00 | 0.00 | 0.00 | 47 | 1024.5 |
| 20260831071516 | 85 | 0 | 1.0 | 2.0 | 0.00 | 0.00 | 0.00 | 46 | 1024.8 |
| 20260831070536 | 85 | 0.0 | 1.0 | 0.00 | 0.00 | 0.00 | 46 | 1024.9 | |
| 20260831065517 | 85 | 158 | 3.0 | 5.0 | 0.00 | 0.00 | 0.00 | 45 | 1025.0 |
| 20260831064516 | 86 | 158 | 3.0 | 5.0 | 0.00 | 0.00 | 0.00 | 45 | 1024.7 |
| 20260831063516 | 86 | 158 | 3.0 | 6.0 | 0.00 | 0.00 | 0.00 | 45 | 1024.9 |
| 20260831062516 | 86 | 158 | 4.0 | 7.0 | 0.00 | 0.00 | 0.00 | 45 | 1024.8 |
| 20260831061517 | 86 | 158 | 4.0 | 7.0 | 0.00 | 0.00 | 0.00 | 45 | 1024.7 |
| 20260831060537 | 86 | 135 | 5.0 | 8.0 | 0.00 | 0.00 | 0.00 | 45 | 1024.7 |
| 20260831055516 | 86 | 158 | 4.0 | 6.0 | 0.00 | 0.00 | 0.00 | 44 | 1024.7 |
| 20260831054517 | 86 | 180 | 3.0 | 4.0 | 0.00 | 0.00 | 0.00 | 44 | 1024.7 |
| 20260831053516 | 87 | 158 | 4.0 | 8.0 | 0.00 | 0.00 | 0.00 | 44 | 1024.7 |
| 20260831052516 | 87 | 180 | 6.0 | 10.0 | 0.00 | 0.00 | 0.00 | 44 | 1024.4 |
| 20260831051516 | 87 | 203 | 5.0 | 12.0 | 0.00 | 0.00 | 0.00 | 44 | 1024.2 |
| 20260831050517 | 87 | 225 | 5.0 | 8.0 | 0.00 | 0.00 | 0.00 | 43 | 1024.0 |
| 20260831045517 | 88 | 225 | 8.0 | 15.0 | 0.00 | 0.00 | 0.00 | 43 | 1023.5 |
| 20260831044517 | 88 | 248 | 5.0 | 11.0 | 0.00 | 0.00 | 0.00 | 42 | 1023.8 |